createdAt,value
2018-07-04T00:03:44.595Z,15.50
2018-07-04T00:10:13.004Z,15.40
2018-07-04T00:16:41.582Z,15.30
2018-07-04T00:23:10.909Z,15.10
2018-07-04T00:29:39.572Z,15.00
2018-07-04T00:36:08.307Z,14.90
2018-07-04T00:42:36.902Z,14.80
2018-07-04T00:49:05.381Z,14.70
2018-07-04T00:55:33.949Z,14.70
2018-07-04T01:02:02.471Z,14.60
2018-07-04T01:08:30.849Z,14.60
2018-07-04T01:14:59.315Z,14.50
2018-07-04T01:21:27.736Z,14.30
2018-07-04T01:27:56.382Z,14.20
2018-07-04T01:34:25.199Z,14.20
2018-07-04T01:40:54.181Z,14.30
2018-07-04T01:47:22.592Z,14.00
2018-07-04T01:53:51.843Z,13.90
2018-07-04T02:00:21.287Z,13.80
2018-07-04T02:06:51.013Z,13.80
2018-07-04T02:13:20.003Z,13.60
2018-07-04T02:19:48.917Z,13.50
2018-07-04T02:26:17.699Z,13.40
2018-07-04T02:32:45.982Z,13.30
2018-07-04T02:39:14.715Z,13.20
2018-07-04T02:45:43.181Z,13.20
2018-07-04T02:52:11.653Z,13.20
2018-07-04T02:58:40.263Z,13.10
2018-07-04T03:05:08.848Z,12.90
2018-07-04T03:11:37.287Z,12.90
2018-07-04T03:18:06.157Z,12.90
2018-07-04T03:24:34.737Z,12.80
2018-07-04T03:37:25.859Z,12.50
2018-07-04T03:43:54.419Z,12.40
2018-07-04T03:50:22.907Z,12.40
2018-07-04T03:56:51.680Z,12.50
2018-07-04T04:03:20.875Z,12.60
2018-07-04T04:09:50.273Z,12.70
2018-07-04T04:16:18.891Z,12.80
2018-07-04T04:22:47.681Z,12.90
2018-07-04T04:29:16.265Z,13.10
2018-07-04T04:35:44.875Z,13.20
2018-07-04T04:42:13.351Z,13.40
2018-07-04T04:48:41.910Z,13.70
2018-07-04T04:55:10.301Z,13.90
2018-07-04T05:01:38.752Z,14.10
2018-07-04T05:08:07.482Z,14.40
2018-07-04T05:14:35.774Z,14.60
2018-07-04T05:21:04.773Z,14.90
2018-07-04T05:27:33.253Z,15.10
2018-07-04T05:34:01.544Z,15.40
2018-07-04T05:40:30.187Z,15.60
2018-07-04T05:46:58.471Z,15.70
2018-07-04T05:53:27.039Z,15.70
2018-07-04T05:59:55.639Z,15.90
2018-07-04T06:06:24.329Z,16.30
2018-07-04T06:12:53.227Z,16.70
2018-07-04T06:19:21.909Z,17.10
2018-07-04T06:25:50.819Z,17.60
2018-07-04T06:32:19.448Z,17.90
2018-07-04T06:38:29.153Z,18.10
2018-07-04T06:44:32.791Z,18.60
2018-07-04T06:50:36.593Z,19.00
2018-07-04T06:56:40.113Z,19.40
2018-07-04T07:02:43.666Z,19.80
2018-07-04T07:09:06.090Z,20.00
2018-07-04T07:15:34.662Z,20.50
2018-07-04T07:22:03.317Z,21.00
2018-07-04T07:28:31.810Z,21.60
2018-07-04T07:35:00.700Z,22.10
2018-07-04T07:41:29.307Z,22.60
2018-07-04T07:47:57.782Z,23.20
2018-07-04T07:54:26.568Z,23.60
2018-07-04T08:00:55.335Z,23.80
2018-07-04T08:07:23.964Z,24.40
2018-07-04T08:13:53.267Z,25.10
2018-07-04T08:20:21.877Z,25.60
2018-07-04T08:26:50.663Z,26.00
2018-07-04T08:33:19.200Z,26.80
2018-07-04T08:39:47.658Z,27.00
2018-07-04T08:46:16.173Z,27.20
2018-07-04T08:52:45.324Z,27.40
2018-07-04T08:59:14.009Z,27.50
2018-07-04T09:05:42.956Z,27.70
2018-07-04T09:12:11.448Z,28.20
2018-07-04T09:18:40.136Z,28.30
2018-07-04T09:25:09.040Z,28.30
2018-07-04T09:31:37.542Z,29.20
2018-07-04T09:38:06.334Z,29.80
2018-07-04T09:44:34.705Z,29.60
2018-07-04T09:51:03.463Z,29.60
2018-07-04T09:57:32.112Z,29.90
2018-07-04T10:04:01.374Z,30.10
2018-07-04T10:10:29.970Z,30.60
2018-07-04T10:16:58.575Z,30.60
2018-07-04T10:23:27.213Z,30.50
2018-07-04T10:29:56.029Z,30.60
2018-07-04T10:36:25.010Z,31.10
2018-07-04T10:42:53.714Z,31.80
2018-07-04T10:49:22.331Z,32.10
2018-07-04T10:55:51.447Z,32.70
2018-07-04T11:02:20.244Z,32.60
2018-07-04T11:08:48.860Z,32.80
2018-07-04T11:15:17.273Z,33.30
2018-07-04T11:21:45.951Z,33.60
2018-07-04T11:28:14.490Z,33.20
2018-07-04T11:34:43.135Z,34.10
2018-07-04T11:41:11.487Z,34.20
2018-07-04T11:47:21.635Z,34.10
2018-07-04T11:53:25.285Z,34.00
2018-07-04T11:59:29.020Z,34.50
2018-07-04T12:05:51.500Z,35.60
2018-07-04T12:12:01.814Z,36.00
2018-07-04T12:18:05.461Z,35.20
2018-07-04T12:24:09.178Z,35.30
2018-07-04T12:30:12.701Z,35.00
2018-07-04T12:36:16.250Z,33.80
2018-07-04T12:42:20.496Z,34.30
2018-07-04T12:48:24.634Z,35.00
2018-07-04T12:54:33.484Z,35.80
2018-07-04T13:00:55.871Z,35.10
2018-07-04T13:07:25.433Z,34.60
2018-07-04T13:13:53.833Z,35.30
2018-07-04T13:20:22.724Z,34.80
2018-07-04T13:26:51.606Z,35.70
2018-07-04T13:33:20.289Z,35.50
2018-07-04T13:39:48.890Z,35.80
2018-07-04T13:46:17.584Z,37.00
2018-07-04T13:52:46.805Z,38.20
2018-07-04T13:59:15.327Z,38.10
2018-07-04T14:05:43.960Z,36.30
2018-07-04T14:12:12.551Z,36.30
2018-07-04T14:18:41.159Z,34.30
2018-07-04T14:25:09.838Z,33.60
2018-07-04T14:31:38.443Z,33.40
2018-07-04T14:38:07.063Z,34.10
2018-07-04T14:44:35.842Z,34.60
2018-07-04T14:51:04.412Z,35.10
2018-07-04T14:57:32.946Z,36.10
2018-07-04T15:04:01.741Z,35.70
2018-07-04T15:10:30.426Z,35.30
2018-07-04T15:16:59.172Z,35.50
2018-07-04T15:23:27.812Z,36.00
2018-07-04T15:29:56.589Z,36.90
2018-07-04T15:36:25.188Z,37.40
2018-07-04T15:42:53.930Z,37.50
2018-07-04T15:49:22.699Z,36.80
2018-07-04T15:55:51.628Z,35.70
2018-07-04T16:02:20.796Z,35.80
2018-07-04T16:08:49.654Z,34.90
2018-07-04T16:16:21.490Z,34.00
2018-07-04T16:22:50.060Z,33.40
2018-07-04T16:29:18.591Z,33.10
2018-07-04T16:35:47.702Z,33.60
2018-07-04T16:42:16.190Z,34.30
2018-07-04T16:48:45.020Z,35.50
2018-07-04T16:55:13.891Z,36.00
2018-07-04T17:01:42.456Z,36.40
2018-07-04T17:08:11.299Z,38.00
2018-07-04T17:14:39.747Z,38.50
2018-07-04T17:21:08.545Z,39.30
2018-07-04T17:27:37.216Z,39.20
2018-07-04T17:34:05.656Z,38.80
2018-07-04T17:40:34.003Z,36.70
2018-07-04T17:47:02.554Z,34.90
2018-07-04T17:53:31.051Z,33.30
2018-07-04T17:59:59.836Z,32.30
2018-07-04T18:06:28.629Z,31.40
2018-07-04T18:19:20.007Z,30.30
2018-07-04T18:25:48.396Z,30.20
2018-07-04T18:32:17.645Z,30.10
2018-07-04T18:38:46.263Z,29.60
2018-07-04T18:45:14.884Z,29.30
2018-07-04T18:51:43.652Z,29.50
2018-07-04T18:58:12.288Z,29.20
2018-07-04T19:04:40.809Z,28.50
2018-07-04T19:11:09.525Z,27.90
2018-07-04T19:17:37.923Z,27.50
2018-07-04T19:37:07.992Z,26.50
2018-07-04T19:43:36.577Z,25.80
2018-07-04T19:50:05.121Z,25.50
2018-07-04T19:56:33.824Z,25.40
2018-07-04T20:03:02.441Z,25.20
2018-07-04T20:09:31.580Z,25.00
2018-07-04T20:16:00.564Z,24.80
2018-07-04T20:22:29.026Z,24.70
2018-07-04T20:28:57.635Z,24.40
2018-07-04T20:35:26.182Z,24.00
2018-07-04T20:41:54.865Z,23.60
2018-07-04T20:48:23.385Z,23.40
2018-07-04T20:54:52.227Z,23.10
2018-07-04T21:01:22.542Z,23.00
2018-07-04T21:07:51.458Z,22.90
2018-07-04T21:14:20.475Z,22.60
2018-07-04T21:20:49.075Z,22.50
2018-07-04T21:27:17.635Z,22.40
2018-07-04T21:33:46.186Z,22.40
2018-07-04T21:40:14.552Z,22.20
2018-07-04T21:46:43.149Z,22.10
2018-07-04T21:53:11.924Z,22.00
2018-07-04T21:59:40.616Z,21.70
2018-07-04T22:06:09.686Z,21.50
2018-07-04T22:12:37.991Z,21.50
2018-07-04T22:19:06.612Z,21.20
2018-07-04T22:25:35.020Z,21.20
2018-07-04T22:32:03.500Z,21.20
2018-07-04T22:38:32.186Z,21.10
2018-07-04T22:45:01.076Z,21.00
2018-07-04T22:51:29.626Z,20.80
2018-07-04T22:57:58.503Z,20.80
2018-07-04T23:04:27.158Z,20.80
2018-07-04T23:10:55.822Z,20.50
2018-07-04T23:17:24.376Z,20.40
2018-07-04T23:23:52.953Z,20.40
2018-07-04T23:30:22.061Z,20.50
2018-07-04T23:36:51.557Z,20.50
2018-07-04T23:43:20.679Z,20.30
2018-07-04T23:49:49.401Z,20.10
2018-07-04T23:56:18.508Z,19.90
